Time;durP1;ratioP1;P1;durP2;ratioP2;P2;SDS_P1;SDS_P2;PMS_P1;PMS_P2;Temp;Humidity;BMP_temperature;BMP_pressure;BME280_temperature;BME280_humidity;BME280_pressure;Samples;Min_cycle;Max_cycle;Signal;HPM_P1;HPM_P2
2020/12/15 00:00:33;;;;;;;21.50;9.70;;;4.70;78.40;;;;;;4901859;29;20028;-81
2020/12/15 00:02:58;;;;;;;23.88;10.80;;;4.70;78.40;;;;;;4883927;29;20104;-81
2020/12/15 00:05:24;;;;;;;23.27;10.23;;;4.70;78.40;;;;;;4885885;29;20040;-81
2020/12/15 00:07:49;;;;;;;24.15;11.00;;;4.70;78.30;;;;;;4885868;29;20025;-80
2020/12/15 00:10:15;;;;;;;25.08;11.00;;;4.70;78.40;;;;;;4901511;29;20035;-80
2020/12/15 00:12:41;;;;;;;23.75;11.25;;;4.70;78.10;;;;;;4917154;29;20040;-80
2020/12/15 00:15:08;;;;;;;25.65;10.45;;;4.60;78.20;;;;;;4886680;29;20071;-80
2020/12/15 00:17:33;;;;;;;23.73;10.63;;;4.60;78.10;;;;;;4884926;29;20035;-81
2020/12/15 00:19:59;;;;;;;25.88;11.30;;;4.60;78.40;;;;;;4916850;29;20024;-81
2020/12/15 00:22:25;;;;;;;26.25;10.25;;;4.60;78.40;;;;;;4885438;29;20048;-81
2020/12/15 00:24:50;;;;;;;24.90;10.48;;;4.60;78.40;;;;;;4915527;29;20056;-81
2020/12/15 00:27:16;;;;;;;23.83;10.40;;;4.60;78.50;;;;;;4915685;29;20126;-79
2020/12/15 00:29:42;;;;;;;27.55;10.95;;;4.60;78.40;;;;;;4915520;29;20483;-79
2020/12/15 00:32:08;;;;;;;25.00;10.20;;;4.60;78.40;;;;;;4885635;29;20047;-80
2020/12/15 00:34:34;;;;;;;24.95;11.10;;;4.60;79.00;;;;;;4885505;29;20489;-81
2020/12/15 00:37:00;;;;;;;25.20;10.20;;;4.60;78.30;;;;;;4888677;29;20047;-80
2020/12/15 00:39:25;;;;;;;27.70;12.68;;;4.50;78.10;;;;;;4874556;29;20119;-80
2020/12/15 00:41:51;;;;;;;23.98;10.77;;;4.50;78.10;;;;;;4899668;29;20048;-81
2020/12/15 00:44:16;;;;;;;28.33;12.20;;;4.50;78.30;;;;;;4915443;29;20035;-80
2020/12/15 00:46:42;;;;;;;28.17;11.25;;;4.50;78.30;;;;;;4916372;29;20032;-81
2020/12/15 00:49:08;;;;;;;29.95;12.77;;;4.50;78.50;;;;;;4915417;29;20028;-80
2020/12/15 00:51:33;;;;;;;32.72;13.10;;;4.50;78.20;;;;;;4884952;29;20032;-81
2020/12/15 00:53:59;;;;;;;33.72;14.13;;;4.40;78.30;;;;;;4889778;29;20473;-81
2020/12/15 00:56:25;;;;;;;30.58;12.68;;;4.50;78.30;;;;;;4899322;29;20028;-80
2020/12/15 00:58:50;;;;;;;33.97;13.32;;;4.50;78.30;;;;;;4885042;29;20039;-80
2020/12/15 01:01:16;;;;;;;35.35;13.73;;;4.40;78.30;;;;;;4899487;29;20036;-80
2020/12/15 01:03:42;;;;;;;27.80;12.05;;;4.40;78.30;;;;;;4915084;29;20122;-80
2020/12/15 01:06:09;;;;;;;30.85;12.30;;;4.40;78.40;;;;;;4886444;29;20029;-80
2020/12/15 01:08:34;;;;;;;31.55;12.85;;;4.40;79.00;;;;;;4916448;29;20024;-80
2020/12/15 01:11:00;;;;;;;29.92;11.63;;;4.40;78.70;;;;;;4899276;29;20035;-80
2020/12/15 01:13:26;;;;;;;27.60;12.07;;;4.50;78.70;;;;;;4886656;29;20213;-80
2020/12/15 01:15:52;;;;;;;30.25;12.73;;;4.50;78.70;;;;;;4895977;29;20040;-81
2020/12/15 01:18:18;;;;;;;29.70;12.68;;;4.50;78.70;;;;;;4896040;29;20088;-81
2020/12/15 01:20:43;;;;;;;28.48;11.38;;;4.50;78.50;;;;;;4881540;29;20040;-81
2020/12/15 01:23:09;;;;;;;33.97;13.98;;;4.50;78.50;;;;;;4896431;29;20036;-81
2020/12/15 01:25:35;;;;;;;31.00;12.75;;;4.50;78.60;;;;;;4896931;29;20491;-81
2020/12/15 01:28:00;;;;;;;28.67;11.73;;;4.50;79.30;;;;;;4884658;29;20033;-81
2020/12/15 01:30:26;;;;;;;30.55;12.57;;;4.50;78.50;;;;;;4897208;29;20025;-81
2020/12/15 01:32:51;;;;;;;33.47;12.90;;;4.50;78.60;;;;;;4881307;29;20075;-81
2020/12/15 01:35:18;;;;;;;26.83;10.88;;;4.50;78.70;;;;;;4896129;29;20032;-81
2020/12/15 01:37:47;;;;;;;28.98;11.80;;;4.60;78.70;;;;;;4897124;29;20497;-81
2020/12/15 01:40:13;;;;;;;28.10;11.93;;;4.50;78.60;;;;;;4886825;29;20040;-80
2020/12/15 01:42:39;;;;;;;29.00;11.60;;;4.50;78.60;;;;;;4882822;29;20485;-80
2020/12/15 01:45:06;;;;;;;30.20;12.75;;;4.50;78.60;;;;;;4896291;29;20056;-80
2020/12/15 01:47:32;;;;;;;27.52;11.50;;;4.50;78.40;;;;;;4895728;29;20024;-81
2020/12/15 01:49:58;;;;;;;26.17;12.00;;;4.50;78.50;;;;;;4881504;29;20046;-81
2020/12/15 01:52:27;;;;;;;27.20;11.82;;;4.50;78.60;;;;;;4895761;29;20029;-81
2020/12/15 01:54:52;;;;;;;27.23;11.90;;;4.50;78.50;;;;;;4896021;29;20131;-81
2020/12/15 01:57:18;;;;;;;28.58;11.50;;;4.50;79.20;;;;;;4881325;29;20119;-81
2020/12/15 01:59:45;;;;;;;25.77;11.48;;;4.50;78.60;;;;;;4883326;29;20037;-81
2020/12/15 02:02:11;;;;;;;25.52;10.70;;;4.50;78.60;;;;;;4897686;29;20036;-81
2020/12/15 02:04:36;;;;;;;27.02;11.40;;;4.50;78.60;;;;;;4881588;29;20028;-81
2020/12/15 02:07:02;;;;;;;29.55;11.05;;;4.50;79.20;;;;;;4866074;29;20381;-81
2020/12/15 02:09:28;;;;;;;25.48;10.35;;;4.50;78.70;;;;;;4881907;29;20029;-80
2020/12/15 02:11:53;;;;;;;26.92;11.48;;;4.50;78.70;;;;;;4884821;29;20557;-80
2020/12/15 02:14:20;;;;;;;23.92;9.98;;;4.50;78.70;;;;;;4901059;29;20028;-80
2020/12/15 02:16:50;;;;;;;25.20;11.10;;;4.50;78.60;;;;;;4875406;29;20043;-80
2020/12/15 02:19:17;;;;;;;26.30;10.93;;;4.50;78.70;;;;;;4902543;29;20103;-79
2020/12/15 02:22:01;;;;;;;28.00;11.60;;;4.50;78.70;;;;;;4902135;29;20029;-80
2020/12/15 02:24:28;;;;;;;27.42;11.52;;;4.50;78.80;;;;;;4890197;29;20131;-80
2020/12/15 02:26:54;;;;;;;32.70;12.98;;;4.60;78.80;;;;;;4919426;29;20020;-80
2020/12/15 02:29:19;;;;;;;29.15;12.23;;;4.50;78.70;;;;;;4922342;29;20024;-80
2020/12/15 02:31:45;;;;;;;28.92;12.23;;;4.60;78.70;;;;;;4908435;29;20031;-81
2020/12/15 02:34:11;;;;;;;30.55;12.25;;;4.60;78.90;;;;;;4902550;29;20072;-80
2020/12/15 02:36:37;;;;;;;26.20;10.93;;;4.60;79.00;;;;;;4902114;29;20422;-80
2020/12/15 02:39:14;;;;;;;28.35;12.48;;;4.60;78.90;;;;;;4901956;29;20506;-80
2020/12/15 02:41:40;;;;;;;33.00;13.50;;;4.70;79.00;;;;;;4901712;29;20029;-81
2020/12/15 02:44:07;;;;;;;27.38;12.85;;;4.60;78.70;;;;;;4871723;29;20032;-80
2020/12/15 02:46:34;;;;;;;25.50;11.07;;;4.60;78.70;;;;;;4918715;29;20416;-80
2020/12/15 02:49:00;;;;;;;28.77;11.57;;;4.60;78.90;;;;;;4917486;29;20063;-81
2020/12/15 02:51:26;;;;;;;30.55;11.68;;;4.70;78.90;;;;;;4901747;29;20071;-81
2020/12/15 02:53:52;;;;;;;27.33;10.85;;;4.70;78.80;;;;;;4901830;29;20038;-80
2020/12/15 02:56:23;;;;;;;28.98;12.20;;;4.70;78.90;;;;;;4917782;29;20465;-80
2020/12/15 02:58:49;;;;;;;27.40;12.93;;;4.70;78.90;;;;;;4901793;29;20046;-80
2020/12/15 03:01:16;;;;;;;21.98;9.52;;;4.70;78.70;;;;;;4901271;29;20548;-80
2020/12/15 03:03:41;;;;;;;25.38;12.02;;;4.70;78.70;;;;;;4917262;29;20046;-80
2020/12/15 03:06:07;;;;;;;24.33;10.75;;;4.70;78.90;;;;;;4901366;29;20171;-80
2020/12/15 03:08:33;;;;;;;29.55;12.52;;;4.70;79.60;;;;;;4907034;29;20032;-80
2020/12/15 03:11:00;;;;;;;29.17;12.63;;;4.80;79.00;;;;;;4918034;29;20549;-79
2020/12/15 03:13:26;;;;;;;24.80;10.05;;;4.70;78.90;;;;;;4901182;29;20087;-80
2020/12/15 03:15:51;;;;;;;28.45;11.75;;;4.80;79.00;;;;;;4898067;29;20490;-80
2020/12/15 03:18:17;;;;;;;27.92;11.05;;;4.80;78.90;;;;;;4883541;29;20042;-80
2020/12/15 03:20:47;;;;;;;23.65;9.75;;;4.80;78.90;;;;;;4867509;29;20389;-80
2020/12/15 03:23:13;;;;;;;28.95;12.80;;;4.80;78.80;;;;;;4901378;29;20037;-82
2020/12/15 03:25:40;;;;;;;27.80;12.18;;;4.80;78.80;;;;;;4898050;29;20080;-80
2020/12/15 03:28:05;;;;;;;29.55;12.50;;;4.80;78.90;;;;;;4897684;29;20385;-80
2020/12/15 03:30:32;;;;;;;29.77;12.30;;;4.80;79.00;;;;;;4884964;29;20032;-79
2020/12/15 03:32:57;;;;;;;25.70;10.55;;;4.80;79.50;;;;;;4897771;29;20044;-79
2020/12/15 03:35:23;;;;;;;27.08;11.63;;;4.80;78.90;;;;;;4885980;29;20028;-80
2020/12/15 03:37:49;;;;;;;26.50;10.32;;;4.80;78.80;;;;;;4886700;29;20044;-81
2020/12/15 03:40:14;;;;;;;26.98;10.40;;;4.80;79.10;;;;;;4898115;29;20028;-81
2020/12/15 03:42:40;;;;;;;24.98;11.50;;;4.90;79.70;;;;;;4883383;29;20036;-81
2020/12/15 03:45:06;;;;;;;27.13;10.63;;;4.80;78.90;;;;;;4886120;29;20063;-81
2020/12/15 03:47:31;;;;;;;26.90;10.68;;;4.90;79.10;;;;;;4897426;29;20046;-81
2020/12/15 03:49:57;;;;;;;28.92;12.25;;;4.90;79.10;;;;;;4897506;29;20057;-81
2020/12/15 03:52:22;;;;;;;27.92;11.60;;;4.90;79.00;;;;;;4886570;29;20096;-81
2020/12/15 03:54:48;;;;;;;27.20;11.98;;;4.90;79.10;;;;;;4890439;29;20029;-81
2020/12/15 03:57:13;;;;;;;27.05;12.25;;;4.90;78.90;;;;;;4898812;29;20566;-81
2020/12/15 03:59:39;;;;;;;26.83;11.60;;;5.00;79.10;;;;;;4882950;29;20135;-81
2020/12/15 04:02:05;;;;;;;22.70;9.80;;;5.00;79.20;;;;;;4869996;29;20043;-81
2020/12/15 04:04:30;;;;;;;24.10;10.88;;;5.00;79.30;;;;;;4887188;29;20028;-80
2020/12/15 04:06:56;;;;;;;27.58;11.43;;;5.00;79.20;;;;;;4882910;29;20434;-80
2020/12/15 04:09:21;;;;;;;31.23;12.93;;;5.00;79.00;;;;;;4902152;29;20033;-81
2020/12/15 04:11:47;;;;;;;28.10;11.48;;;5.10;79.10;;;;;;4897055;29;20124;-80
2020/12/15 04:14:12;;;;;;;26.17;12.20;;;5.00;78.90;;;;;;4898977;29;20029;-80
2020/12/15 04:16:38;;;;;;;26.35;11.07;;;5.00;79.00;;;;;;4885617;29;20079;-80
2020/12/15 04:19:04;;;;;;;29.30;11.75;;;5.00;79.00;;;;;;4885732;29;20039;-80
2020/12/15 04:21:29;;;;;;;27.45;12.07;;;5.10;79.20;;;;;;4884753;29;20243;-80
2020/12/15 04:23:55;;;;;;;31.48;12.15;;;5.10;79.20;;;;;;4901346;29;20036;-80
2020/12/15 04:26:20;;;;;;;25.20;11.05;;;5.10;79.00;;;;;;4872138;29;20537;-81
2020/12/15 04:28:47;;;;;;;25.20;11.93;;;5.10;79.10;;;;;;4900075;29;20119;-81
2020/12/15 04:31:12;;;;;;;30.08;12.73;;;5.10;79.10;;;;;;4916966;29;20358;-80
2020/12/15 04:33:38;;;;;;;24.00;11.55;;;5.10;78.70;;;;;;4899308;29;20028;-80
2020/12/15 04:36:03;;;;;;;26.20;12.02;;;5.00;79.00;;;;;;4869731;29;20039;-80
2020/12/15 04:38:29;;;;;;;26.05;11.00;;;5.10;79.50;;;;;;4885150;29;20059;-81
2020/12/15 04:40:55;;;;;;;24.58;11.35;;;5.10;79.20;;;;;;4884274;29;20032;-81
2020/12/15 04:43:21;;;;;;;27.42;11.10;;;5.10;79.20;;;;;;4916652;29;20052;-81
2020/12/15 04:45:47;;;;;;;27.52;11.35;;;5.10;79.30;;;;;;4899744;29;20115;-81
2020/12/15 04:48:22;;;;;;;28.15;12.70;;;5.20;79.30;;;;;;4885026;29;20059;-80
2020/12/15 04:50:49;;;;;;;28.45;11.98;;;5.20;79.20;;;;;;4900009;29;20051;-81
2020/12/15 04:53:23;;;;;;;27.10;13.20;;;5.20;79.30;;;;;;4915372;29;20032;-80
2020/12/15 04:55:50;;;;;;;26.83;12.25;;;5.30;79.30;;;;;;4916403;29;20040;-80
2020/12/15 04:58:20;;;;;;;28.80;11.77;;;5.20;79.40;;;;;;4899330;29;20048;-81
2020/12/15 05:00:46;;;;;;;27.20;11.88;;;5.20;79.00;;;;;;4914885;29;20074;-80
2020/12/15 05:03:18;;;;;;;30.48;13.07;;;5.20;79.10;;;;;;4899110;29;20485;-80
2020/12/15 05:05:46;;;;;;;28.85;11.38;;;5.20;79.30;;;;;;4899486;29;20478;-80
2020/12/15 05:08:15;;;;;;;35.28;12.15;;;5.30;79.30;;;;;;4916583;29;20064;-80
2020/12/15 05:10:41;;;;;;;26.77;10.95;;;5.20;79.00;;;;;;4901429;29;20024;-80
2020/12/15 05:13:06;;;;;;;24.70;10.95;;;5.20;79.20;;;;;;4906987;29;20039;-80
2020/12/15 05:15:33;;;;;;;29.40;12.25;;;5.30;79.10;;;;;;4891458;29;20057;-80
2020/12/15 05:18:05;;;;;;;23.90;9.57;;;5.20;79.00;;;;;;4866409;29;20025;-80
2020/12/15 05:20:33;;;;;;;27.83;11.07;;;5.20;79.20;;;;;;4882008;29;20021;-80
2020/12/15 05:22:59;;;;;;;26.85;10.77;;;5.20;79.10;;;;;;4897051;29;20080;-80
2020/12/15 05:25:28;;;;;;;25.27;10.52;;;5.20;79.10;;;;;;4880421;29;20025;-80
2020/12/15 05:27:59;;;;;;;29.88;11.52;;;5.20;79.90;;;;;;4896337;29;20738;-80
2020/12/15 05:30:25;;;;;;;30.08;10.32;;;5.20;79.10;;;;;;4895965;29;20061;-80
2020/12/15 05:32:56;;;;;;;25.98;11.60;;;5.30;79.40;;;;;;4897274;29;20024;-80
2020/12/15 05:35:31;;;;;;;26.70;10.10;;;5.30;79.50;;;;;;4884178;29;20394;-80
2020/12/15 05:38:07;;;;;;;29.13;11.35;;;5.40;79.40;;;;;;4880444;29;20407;-81
2020/12/15 05:40:33;;;;;;;31.45;12.23;;;5.40;79.30;;;;;;4865835;29;20115;-81
2020/12/15 05:43:01;;;;;;;27.83;11.65;;;5.40;79.10;;;;;;4866124;29;20044;-81
2020/12/15 05:45:28;;;;;;;30.40;12.55;;;5.40;79.10;;;;;;4899086;29;20037;-81
2020/12/15 05:48:10;;;;;;;36.78;12.60;;;5.30;79.10;;;;;;4883938;29;20029;-80
2020/12/15 05:50:38;;;;;;;26.17;10.52;;;5.30;79.80;;;;;;4880650;29;20160;-80
2020/12/15 05:53:06;;;;;;;30.60;11.88;;;5.30;79.20;;;;;;4885243;29;20025;-80
2020/12/15 05:55:32;;;;;;;27.17;11.48;;;5.30;79.10;;;;;;4883963;29;20032;-80
2020/12/15 05:57:59;;;;;;;24.50;10.88;;;5.30;79.30;;;;;;4884204;29;20039;-80
2020/12/15 06:00:26;;;;;;;27.75;11.38;;;5.30;79.30;;;;;;4899491;29;20035;-80
2020/12/15 06:03:02;;;;;;;33.25;13.30;;;5.30;79.30;;;;;;4873220;29;20135;-80
2020/12/15 06:05:29;;;;;;;32.20;12.88;;;5.40;79.60;;;;;;4897009;29;20033;-80
2020/12/15 06:07:56;;;;;;;30.77;13.50;;;5.40;79.20;;;;;;4883744;29;20029;-80
2020/12/15 06:10:24;;;;;;;31.02;12.57;;;5.40;79.60;;;;;;4869359;29;20029;-80
2020/12/15 06:12:51;;;;;;;32.72;14.30;;;5.40;79.60;;;;;;4900316;29;20084;-80
2020/12/15 06:15:17;;;;;;;32.97;13.70;;;5.40;79.00;;;;;;4907990;29;20107;-82
2020/12/15 06:17:54;;;;;;;30.58;12.52;;;5.40;79.30;;;;;;4887892;29;20055;-81
2020/12/15 06:20:21;;;;;;;31.83;12.32;;;5.40;79.60;;;;;;4902565;29;20511;-82
2020/12/15 06:22:56;;;;;;;33.38;12.35;;;5.40;79.60;;;;;;4902274;29;20032;-83
2020/12/15 06:25:33;;;;;;;28.65;11.75;;;5.50;79.30;;;;;;4889739;29;20435;-83
2020/12/15 06:28:10;;;;;;;28.20;11.38;;;5.50;79.30;;;;;;4902236;29;20026;-84
2020/12/15 06:30:43;;;;;;;28.73;12.30;;;5.40;79.30;;;;;;4919132;29;20059;-84
2020/12/15 06:33:14;;;;;;;30.05;12.00;;;5.40;78.90;;;;;;4902466;29;20016;-84
2020/12/15 06:35:45;;;;;;;31.67;12.85;;;5.30;78.80;;;;;;4902176;29;20030;-85
2020/12/15 06:38:20;;;;;;;28.77;11.88;;;5.30;79.10;;;;;;4902193;29;20115;-84
2020/12/15 06:40:47;;;;;;;30.95;12.57;;;5.30;79.00;;;;;;4902154;29;20031;-87
2020/12/15 06:43:30;;;;;;;27.63;9.90;;;5.30;79.30;;;;;;4901802;29;20058;-81
2020/12/15 06:46:10;;;;;;;20.85;8.90;;;5.20;78.90;;;;;;4902000;29;20462;-81
2020/12/15 06:48:37;;;;;;;35.63;12.43;;;5.20;78.80;;;;;;4899319;29;20481;-80
2020/12/15 06:51:30;;;;;;;30.70;10.77;;;5.20;79.30;;;;;;4901724;29;20040;-80
2020/12/15 06:54:04;;;;;;;24.08;9.27;;;5.10;79.10;;;;;;4899845;29;20028;-81
2020/12/15 06:56:30;;;;;;;29.00;12.70;;;5.10;79.10;;;;;;4918389;29;20024;-81
2020/12/15 06:59:04;;;;;;;17.55;8.13;;;5.10;79.30;;;;;;4901854;29;20110;-81
2020/12/15 07:12:01;;;;;;;29.50;11.40;;;5.10;79.10;;;;;;4896746;29;20020;-84
2020/12/15 07:14:29;;;;;;;30.45;11.85;;;5.10;79.50;;;;;;4896317;29;20136;-84
2020/12/15 07:16:55;;;;;;;31.55;12.30;;;5.10;79.40;;;;;;4881431;29;20071;-86
2020/12/15 07:19:32;;;;;;;29.02;11.27;;;5.10;79.50;;;;;;4894058;29;20533;-86
2020/12/15 07:22:22;;;;;;;29.40;11.63;;;5.20;79.70;;;;;;4892957;29;20068;-88
2020/12/15 07:29:24;;;;;;;24.17;11.13;;;5.30;79.50;;;;;;4917101;29;20544;-86
2020/12/15 07:32:26;;;;;;;31.30;12.57;;;5.30;79.70;;;;;;4879564;29;20089;-85
2020/12/15 07:40:47;;;;;;;36.45;13.02;;;5.40;79.90;;;;;;5026988;23;20071;-84
2020/12/15 07:50:35;;;;;;;36.75;13.25;;;5.60;79.60;;;;;;4880719;29;20116;-86
2020/12/15 10:12:01;;;;;;;24.10;11.02;;;7.70;79.60;;;;;;4933812;29;20078;-85
2020/12/15 12:40:27;;;;;;;19.92;9.20;;;9.40;79.50;;;;;;5511975;23;20135;-87
2020/12/15 12:47:04;;;;;;;;;;;;;;;;;;;;;
2020/12/15 12:58:13;;;;;;;;;;;;;;;;;;;;;
2020/12/15 14:15:10;;;;;;;;;;;;;;;;;;;;;
2020/12/15 14:18:41;;;;;;;;;;;;;;;;;;;;;
2020/12/15 14:29:11;;;;;;;20.30;9.15;;;8.40;78.80;;;;;;4827025;29;20061;-90
2020/12/15 14:56:35;;;;;;;16.85;6.70;;;8.10;78.60;;;;;;4902144;29;20081;-82
2020/12/15 15:05:48;;;;;;;29.23;12.38;;;8.10;78.70;;;;;;4923037;29;20071;-84
2020/12/15 15:14:43;;;;;;;24.52;11.48;;;8.00;78.60;;;;;;4867417;29;20559;-89
2020/12/15 15:17:28;;;;;;;22.88;11.07;;;8.00;78.70;;;;;;4903564;29;20114;-88
2020/12/15 15:26:11;;;;;;;29.15;14.57;;;7.90;78.20;;;;;;5061543;23;20509;-87
2020/12/15 15:28:52;;;;;;;27.58;12.32;;;7.90;78.10;;;;;;4907229;29;20024;-87
2020/12/15 15:31:18;;;;;;;30.33;11.35;;;7.80;78.30;;;;;;4907426;29;20064;-89
2020/12/15 15:37:45;;;;;;;25.58;11.77;;;7.80;78.80;;;;;;4918449;29;20079;-87
2020/12/15 15:47:13;;;;;;;24.10;10.85;;;7.70;78.70;;;;;;4925835;29;20088;-90
2020/12/15 15:50:07;;;;;;;30.70;14.18;;;7.70;78.60;;;;;;4923313;29;20504;-85
2020/12/15 15:52:43;;;;;;;26.65;12.48;;;7.60;78.30;;;;;;4905337;29;20408;-88
2020/12/15 15:55:11;;;;;;;33.63;15.70;;;7.60;78.30;;;;;;4903313;29;20496;-84
2020/12/15 15:57:37;;;;;;;33.42;14.77;;;7.60;78.50;;;;;;4908971;29;20035;-83
2020/12/15 16:00:29;;;;;;;30.90;14.43;;;7.60;79.30;;;;;;4924518;29;20403;-84
2020/12/15 16:02:55;;;;;;;33.28;14.60;;;7.60;78.60;;;;;;4907302;29;20039;-87
2020/12/15 16:08:26;;;;;;;27.55;12.75;;;7.60;78.50;;;;;;4910240;29;20095;-88
2020/12/15 16:11:21;;;;;;;29.67;12.90;;;7.60;78.50;;;;;;4902049;29;20036;-88
2020/12/15 16:13:51;;;;;;;38.50;16.90;;;7.60;78.20;;;;;;4897844;29;20036;-87
2020/12/15 16:16:19;;;;;;;28.95;14.02;;;7.50;78.30;;;;;;4905555;29;20032;-88
2020/12/15 16:18:48;;;;;;;30.73;12.88;;;7.50;78.40;;;;;;4905965;29;20016;-88
2020/12/15 16:21:13;;;;;;;30.27;14.35;;;7.40;78.20;;;;;;4907391;29;20024;-88
2020/12/15 16:27:00;;;;;;;27.15;11.93;;;7.50;78.70;;;;;;4907480;29;20064;-84
2020/12/15 16:29:40;;;;;;;27.13;11.63;;;7.50;78.50;;;;;;4900614;29;20412;-85
2020/12/15 16:32:06;;;;;;;26.40;13.27;;;7.50;78.50;;;;;;4901127;29;20039;-84
2020/12/15 16:34:32;;;;;;;27.30;12.77;;;7.50;78.50;;;;;;4901442;29;20028;-87
2020/12/15 16:36:57;;;;;;;30.23;14.40;;;7.50;78.50;;;;;;4919687;29;20410;-86
2020/12/15 16:39:23;;;;;;;32.60;14.20;;;7.50;78.50;;;;;;4899820;29;20032;-86
2020/12/15 16:41:49;;;;;;;32.45;13.85;;;7.50;78.60;;;;;;4902150;29;20412;-87
2020/12/15 16:44:15;;;;;;;27.75;12.73;;;7.50;78.70;;;;;;4901257;29;20027;-87
2020/12/15 16:46:41;;;;;;;30.55;15.18;;;7.50;78.70;;;;;;4901740;29;20452;-87
2020/12/15 16:49:08;;;;;;;36.63;14.63;;;7.50;78.50;;;;;;4899831;29;20038;-87
2020/12/15 16:51:35;;;;;;;28.45;13.02;;;7.40;79.00;;;;;;4918149;29;20039;-86
2020/12/15 16:54:01;;;;;;;30.45;13.02;;;7.60;78.60;;;;;;4924205;29;20111;-87
2020/12/15 16:56:26;;;;;;;27.52;13.75;;;7.40;78.30;;;;;;4901105;29;20127;-86
2020/12/15 16:58:52;;;;;;;38.00;14.82;;;7.50;78.40;;;;;;4906890;29;20028;-87
2020/12/15 17:01:20;;;;;;;31.08;14.10;;;7.50;78.50;;;;;;4896572;29;20051;-87
2020/12/15 17:03:46;;;;;;;31.02;14.45;;;7.50;78.60;;;;;;4897328;29;20039;-88
2020/12/15 17:06:11;;;;;;;32.85;14.35;;;7.50;78.50;;;;;;4884067;29;20393;-87
2020/12/15 17:08:37;;;;;;;32.22;15.10;;;7.50;78.20;;;;;;4917803;29;20032;-87
2020/12/15 17:11:04;;;;;;;30.42;13.85;;;7.40;78.40;;;;;;4898764;29;20082;-87
2020/12/15 17:13:31;;;;;;;33.17;14.18;;;7.40;78.40;;;;;;4905395;29;20062;-87
2020/12/15 17:15:56;;;;;;;32.50;14.60;;;7.40;78.60;;;;;;4902032;29;20016;-88
2020/12/15 17:18:22;;;;;;;35.30;16.67;;;7.40;78.40;;;;;;4899058;29;20039;-88
2020/12/15 17:20:49;;;;;;;33.95;15.32;;;7.40;78.10;;;;;;4900809;29;20030;-86
2020/12/15 17:23:16;;;;;;;34.90;14.80;;;7.40;78.40;;;;;;4898155;29;20042;-87
2020/12/15 17:25:46;;;;;;;34.75;14.80;;;7.40;78.70;;;;;;4900353;29;20385;-88
2020/12/15 17:28:13;;;;;;;38.03;17.00;;;7.50;78.70;;;;;;4900593;29;20503;-86
2020/12/15 17:30:41;;;;;;;31.90;14.50;;;7.50;78.80;;;;;;4917455;29;20512;-87
2020/12/15 17:33:06;;;;;;;31.83;15.75;;;7.50;78.70;;;;;;4902167;29;20028;-88
2020/12/15 17:35:32;;;;;;;37.78;16.23;;;7.50;78.50;;;;;;4900365;29;20433;-83
2020/12/15 17:37:57;;;;;;;34.40;16.15;;;7.50;78.70;;;;;;4900164;29;20032;-84
2020/12/15 17:40:23;;;;;;;38.17;16.05;;;7.40;78.30;;;;;;4914346;29;20072;-83
2020/12/15 17:42:48;;;;;;;32.15;14.93;;;7.50;78.40;;;;;;4918195;29;20146;-86
2020/12/15 17:45:14;;;;;;;32.30;15.15;;;7.40;78.20;;;;;;4904505;29;20023;-86
2020/12/15 17:47:40;;;;;;;34.28;15.63;;;7.40;78.30;;;;;;4904617;29;20028;-84
2020/12/15 17:50:05;;;;;;;31.73;13.55;;;7.40;78.50;;;;;;4904027;29;20469;-84
2020/12/15 17:52:31;;;;;;;32.78;14.40;;;7.40;78.40;;;;;;4898528;29;20029;-84
2020/12/15 17:54:57;;;;;;;36.72;15.68;;;7.40;78.60;;;;;;4918985;29;20032;-85
2020/12/15 17:57:52;;;;;;;36.05;15.95;;;7.40;78.60;;;;;;4903679;29;20036;-82
2020/12/15 18:00:41;;;;;;;30.38;13.10;;;7.40;78.40;;;;;;4896780;29;20044;-82
2020/12/15 18:06:00;;;;;;;32.92;15.98;;;7.40;78.40;;;;;;4913126;29;20103;-84
2020/12/15 18:08:48;;;;;;;30.20;14.70;;;7.40;78.30;;;;;;4905342;29;20043;-83
2020/12/15 18:11:31;;;;;;;33.35;14.93;;;7.30;78.30;;;;;;4898912;29;20075;-83
2020/12/15 18:14:22;;;;;;;36.17;16.10;;;7.40;78.70;;;;;;4905514;29;20447;-84
2020/12/15 18:17:39;;;;;;;33.67;14.77;;;7.40;78.50;;;;;;4904049;29;20123;-83
2020/12/15 18:20:30;;;;;;;34.30;15.48;;;7.30;78.20;;;;;;4915539;29;20039;-83
2020/12/15 18:23:00;;;;;;;31.38;14.98;;;7.40;78.40;;;;;;4903592;29;20076;-88
2020/12/15 18:25:32;;;;;;;33.67;16.15;;;7.30;78.40;;;;;;4917294;29;20020;-92
2020/12/15 18:28:00;;;;;;;33.08;15.02;;;7.20;78.30;;;;;;4908579;29;20304;-86
2020/12/15 18:30:32;;;;;;;33.58;13.65;;;7.30;78.20;;;;;;4882908;29;20358;-84
2020/12/15 18:33:23;;;;;;;33.17;14.95;;;7.30;78.40;;;;;;4925080;29;20024;-85
2020/12/15 18:35:49;;;;;;;29.27;14.02;;;7.30;78.60;;;;;;4905587;29;20043;-86
2020/12/15 18:38:27;;;;;;;33.67;16.00;;;7.40;78.70;;;;;;4886893;29;20484;-87
2020/12/15 18:47:31;;;;;;;36.95;17.65;;;7.30;78.30;;;;;;4921315;29;20075;-92
2020/12/15 18:50:00;;;;;;;33.42;16.92;;;7.30;78.40;;;;;;4903649;29;20030;-86
2020/12/15 18:52:25;;;;;;;28.00;13.07;;;7.30;78.40;;;;;;4902730;29;20040;-85
2020/12/15 18:55:38;;;;;;;33.38;15.70;;;7.20;78.20;;;;;;4900356;29;20488;-86
2020/12/15 18:58:16;;;;;;;35.50;16.65;;;7.20;78.40;;;;;;4901458;29;20115;-86
2020/12/15 19:08:35;;;;;;;32.35;14.02;;;7.20;79.00;;;;;;5424116;23;20055;-84
2020/12/15 20:09:01;;;;;;;30.70;14.07;;;7.30;78.40;;;;;;5654044;23;20539;-85
2020/12/15 20:11:26;;;;;;;33.20;15.13;;;7.30;78.70;;;;;;4917115;29;20037;-81
2020/12/15 20:13:52;;;;;;;31.15;14.77;;;7.40;78.70;;;;;;4902092;29;20031;-79
2020/12/15 20:16:21;;;;;;;32.38;13.55;;;7.30;78.40;;;;;;4903400;29;20384;-79
2020/12/15 20:18:47;;;;;;;31.23;13.65;;;7.40;78.70;;;;;;4920327;29;20028;-79
2020/12/15 20:21:13;;;;;;;33.03;14.63;;;7.40;78.70;;;;;;4917934;29;20380;-79
2020/12/15 20:23:39;;;;;;;32.53;13.60;;;7.30;78.40;;;;;;4895472;29;20051;-79
2020/12/15 20:26:06;;;;;;;30.83;12.65;;;7.40;78.40;;;;;;4893386;29;20032;-79
2020/12/15 20:28:35;;;;;;;35.30;17.02;;;7.30;78.30;;;;;;4902065;29;20139;-80
2020/12/15 20:31:01;;;;;;;31.75;13.82;;;7.30;78.50;;;;;;4900180;29;20397;-79
2020/12/15 20:33:27;;;;;;;27.52;12.75;;;7.30;78.40;;;;;;4920582;29;20072;-79
2020/12/15 20:35:52;;;;;;;31.95;13.13;;;7.30;78.50;;;;;;4918209;29;20421;-80
2020/12/15 20:38:18;;;;;;;30.33;14.10;;;7.30;78.50;;;;;;4898913;29;20040;-80
2020/12/15 20:40:43;;;;;;;28.95;13.73;;;7.30;78.40;;;;;;4917329;29;20028;-79
2020/12/15 20:43:09;;;;;;;31.75;13.95;;;7.20;78.00;;;;;;4922214;29;20071;-80
2020/12/15 20:45:35;;;;;;;35.42;14.07;;;7.20;77.90;;;;;;4901280;29;20047;-79
2020/12/15 20:48:01;;;;;;;30.00;13.52;;;7.10;77.70;;;;;;4901491;29;20032;-80
2020/12/15 20:50:26;;;;;;;31.13;13.88;;;7.00;77.40;;;;;;4914992;29;20030;-80
2020/12/15 20:52:52;;;;;;;42.50;18.45;;;6.90;77.50;;;;;;4901084;29;20111;-80
2020/12/15 20:55:17;;;;;;;39.72;17.52;;;6.70;77.60;;;;;;4906176;29;20084;-80
2020/12/15 20:57:43;;;;;;;30.38;12.90;;;6.70;77.70;;;;;;4917499;29;20063;-80
2020/12/15 21:00:08;;;;;;;26.70;12.68;;;6.70;78.40;;;;;;4898483;29;20127;-79
2020/12/15 21:02:39;;;;;;;26.63;12.63;;;6.70;77.70;;;;;;4902713;29;20409;-80
2020/12/15 21:05:06;;;;;;;29.02;13.75;;;6.50;77.70;;;;;;4921261;29;20016;-79
2020/12/15 21:07:32;;;;;;;34.70;13.57;;;6.50;77.70;;;;;;4921498;29;20110;-80
2020/12/15 21:09:57;;;;;;;34.15;14.40;;;6.50;77.70;;;;;;4914133;29;20139;-80
2020/12/15 21:12:23;;;;;;;30.30;13.50;;;6.40;77.60;;;;;;4904521;29;20072;-79
2020/12/15 21:14:48;;;;;;;32.55;14.05;;;6.40;77.70;;;;;;4897786;29;20043;-80
2020/12/15 21:17:17;;;;;;;31.70;14.43;;;6.30;77.60;;;;;;4922706;29;20036;-80
2020/12/15 21:19:46;;;;;;;29.90;12.75;;;6.20;77.60;;;;;;4917636;29;20084;-81
2020/12/15 21:22:12;;;;;;;28.25;12.68;;;6.20;77.60;;;;;;4926040;29;20563;-83
2020/12/15 21:24:38;;;;;;;30.90;13.07;;;6.20;78.30;;;;;;4924872;29;20080;-82
2020/12/15 21:27:04;;;;;;;29.85;13.00;;;6.10;77.70;;;;;;4917261;29;20036;-80
2020/12/15 21:29:30;;;;;;;30.23;12.13;;;6.10;77.60;;;;;;4901093;29;20083;-80
2020/12/15 21:31:55;;;;;;;33.47;13.50;;;6.00;77.60;;;;;;4901751;29;20039;-80
2020/12/15 21:34:21;;;;;;;29.80;13.10;;;6.00;77.70;;;;;;4929379;29;20446;-80
2020/12/15 21:36:54;;;;;;;32.40;13.95;;;5.90;77.70;;;;;;4901264;29;20421;-81
2020/12/15 21:39:20;;;;;;;33.22;13.57;;;5.90;77.70;;;;;;4923307;29;20366;-81
2020/12/15 21:41:53;;;;;;;34.13;13.95;;;5.90;77.70;;;;;;4916703;29;20071;-82
2020/12/15 21:44:19;;;;;;;31.92;13.88;;;5.90;77.90;;;;;;4916530;29;20040;-82
2020/12/15 21:46:45;;;;;;;32.40;14.13;;;5.90;78.30;;;;;;4904767;29;20035;-82
2020/12/15 21:49:11;;;;;;;36.90;14.20;;;5.90;78.40;;;;;;4900805;29;20123;-83
2020/12/15 21:51:39;;;;;;;34.30;14.02;;;6.00;78.60;;;;;;4907737;29;20111;-81
2020/12/15 21:54:04;;;;;;;34.53;14.00;;;6.00;78.50;;;;;;4923432;29;20032;-82
2020/12/15 21:56:30;;;;;;;36.95;15.48;;;6.10;78.60;;;;;;4911734;29;20083;-81